Time;durP1;ratioP1;P1;durP2;ratioP2;P2;SDS_P1;SDS_P2;PMS_P1;PMS_P2;Temp;Humidity;BMP_temperature;BMP_pressure;BME280_temperature;BME280_humidity;BME280_pressure;Samples;Min_cycle;Max_cycle;Signal;HPM_P1;HPM_P2
2022/03/25 00:00:44;;;;;;;7.72;7.22;;;;;;;5.86;63.35;102347.47;6081750;23;20031;-67
2022/03/25 00:03:11;;;;;;;6.05;5.65;;;;;;;5.90;62.96;102370.03;6083415;23;20030;-67
2022/03/25 00:05:37;;;;;;;6.28;5.97;;;;;;;5.90;63.62;102373.50;6077357;23;20045;-67
2022/03/25 00:08:04;;;;;;;5.40;5.00;;;;;;;5.78;62.30;102350.13;6082132;23;20018;-67
2022/03/25 00:10:31;;;;;;;6.72;6.28;;;;;;;5.89;62.57;102365.69;6086476;23;20021;-67
2022/03/25 00:12:57;;;;;;;5.80;5.50;;;;;;;5.78;62.12;102356.19;6083836;23;20049;-67
2022/03/25 00:15:24;;;;;;;5.38;4.95;;;;;;;5.63;63.90;102331.97;6065258;23;20069;-67
2022/03/25 00:17:51;;;;;;;4.57;4.38;;;;;;;5.80;63.30;102364.00;6086177;23;20614;-67
2022/03/25 00:20:17;;;;;;;5.40;5.00;;;;;;;5.80;63.70;102385.69;6074425;23;20101;-67
2022/03/25 00:22:44;;;;;;;7.00;6.70;;;;;;;5.39;64.64;102305.16;6080001;23;20033;-68
2022/03/25 00:25:11;;;;;;;5.63;4.40;;;;;;;5.51;64.81;102338.09;6071982;23;20412;-66
2022/03/25 00:27:38;;;;;;;6.95;6.55;;;;;;;5.37;64.04;102317.31;6105274;23;20505;-66
2022/03/25 00:30:05;;;;;;;5.38;4.95;;;;;;;5.52;64.18;102351.09;6086643;23;20093;-66
2022/03/25 00:32:32;;;;;;;6.38;5.93;;;;;;;4.47;64.08;102178.03;6081289;23;20018;-67
2022/03/25 00:34:59;;;;;;;5.18;3.88;;;;;;;5.62;64.75;102379.72;6089434;23;20403;-67
2022/03/25 00:37:25;;;;;;;4.93;4.57;;;;;;;5.61;63.94;102376.22;6061495;23;20022;-67
2022/03/25 00:39:52;;;;;;;4.97;4.68;;;;;;;5.59;64.24;102370.16;6078195;23;20028;-67
2022/03/25 00:42:19;;;;;;;5.47;4.97;;;;;;;5.59;64.14;102398.81;6080422;23;20030;-66
2022/03/25 00:44:47;;;;;;;5.82;5.53;;;;;;;5.35;64.58;102332.97;6078744;23;20021;-67
2022/03/25 00:47:14;;;;;;;3.90;3.70;;;;;;;5.19;64.19;102313.94;6081088;23;20079;-67
2022/03/25 00:49:41;;;;;;;6.95;6.25;;;;;;;5.55;63.56;102384.06;6083552;23;20045;-67
2022/03/25 00:52:07;;;;;;;5.10;4.80;;;;;;;4.29;63.83;102176.34;6049596;23;20030;-67
2022/03/25 00:54:36;;;;;;;6.15;5.85;;;;;;;4.45;64.16;102198.88;6080473;23;20017;-67
2022/03/25 00:57:03;;;;;;;3.70;3.60;;;;;;;3.02;64.40;101988.72;6060919;23;20025;-67
2022/03/25 00:59:29;;;;;;;4.90;4.63;;;;;;;5.30;65.06;102367.69;6078772;23;20126;-67
2022/03/25 01:01:56;;;;;;;7.20;4.88;;;;;;;5.07;65.17;102337.41;6107542;23;20028;-67
2022/03/25 01:04:23;;;;;;;4.07;3.88;;;;;;;4.84;65.91;102314.03;6081619;23;20018;-67
2022/03/25 01:06:49;;;;;;;5.90;5.60;;;;;;;4.65;66.05;102297.63;6084411;23;20083;-67
2022/03/25 01:09:16;;;;;;;8.80;4.28;;;;;;;5.04;66.32;102363.41;6092277;23;20014;-66
2022/03/25 01:11:43;;;;;;;5.88;5.53;;;;;;;3.01;66.05;102036.28;6084428;23;20057;-66
2022/03/25 01:14:09;;;;;;;4.55;4.25;;;;;;;4.38;66.94;102277.72;6090846;23;20071;-67
2022/03/25 01:16:36;;;;;;;5.88;5.57;;;;;;;4.81;67.12;102363.44;6088932;23;20587;-68
2022/03/25 01:19:03;;;;;;;5.57;5.18;;;;;;;4.76;67.59;102363.47;6084439;23;20030;-67
2022/03/25 01:21:29;;;;;;;4.32;4.15;;;;;;;4.72;67.65;102366.94;6086750;23;20033;-66
2022/03/25 01:23:57;;;;;;;4.43;4.22;;;;;;;4.55;68.78;102353.06;6083375;23;20124;-67
2022/03/25 01:26:24;;;;;;;5.35;5.05;;;;;;;4.60;68.35;102367.81;6090856;23;20026;-67
2022/03/25 01:28:52;;;;;;;5.28;4.78;;;;;;;4.41;69.41;102337.50;6083442;23;20022;-67
2022/03/25 01:31:20;;;;;;;4.13;3.92;;;;;;;4.54;69.46;102367.81;6086552;23;20026;-67
2022/03/25 01:33:46;;;;;;;5.80;5.50;;;;;;;4.49;69.61;102369.56;6087497;23;20672;-66
2022/03/25 01:36:13;;;;;;;4.40;4.20;;;;;;;4.07;68.92;102300.22;6084735;23;20093;-67
2022/03/25 01:38:39;;;;;;;6.55;6.20;;;;;;;4.27;70.26;102349.59;6084255;23;20045;-67
2022/03/25 01:41:07;;;;;;;4.32;4.13;;;;;;;4.31;69.89;102370.44;6092759;23;20034;-67
2022/03/25 01:43:34;;;;;;;5.57;5.25;;;;;;;2.97;69.56;102156.44;6080937;23;20026;-67
2022/03/25 01:46:01;;;;;;;14.27;4.38;;;;;;;3.58;70.55;102267.28;6090832;23;20100;-66
2022/03/25 01:48:27;;;;;;;4.28;4.07;;;;;;;3.73;69.83;102316.66;6084091;23;20535;-67
2022/03/25 01:50:54;;;;;;;4.15;3.90;;;;;;;4.18;72.02;102353.06;6084512;23;20503;-67
2022/03/25 01:53:24;;;;;;;3.72;3.53;;;;;;;4.14;72.33;102360.00;6090453;23;20516;-67
2022/03/25 01:55:59;;;;;;;3.95;3.75;;;;;;;4.10;71.92;102358.25;6078777;23;20030;-67
2022/03/25 01:58:30;;;;;;;5.25;4.75;;;;;;;4.09;72.23;102364.34;6090198;23;20041;-66
2022/03/25 02:00:58;;;;;;;4.00;3.80;;;;;;;4.11;72.86;102362.59;6080732;23;20021;-66
2022/03/25 02:03:26;;;;;;;4.13;3.88;;;;;;;4.12;72.01;102350.47;6084807;23;20026;-67
2022/03/25 02:05:53;;;;;;;4.05;3.85;;;;;;;3.10;71.76;102202.28;6087274;23;20010;-66
2022/03/25 02:08:20;;;;;;;3.85;3.65;;;;;;;3.62;71.37;102278.53;6085513;23;20029;-66
2022/03/25 02:10:46;;;;;;;4.95;4.75;;;;;;;4.08;71.06;102359.13;6083876;23;20022;-66
2022/03/25 02:13:13;;;;;;;5.45;4.13;;;;;;;4.07;70.83;102359.97;6090280;23;20654;-66
2022/03/25 02:15:42;;;;;;;5.03;4.82;;;;;;;4.03;71.42;102377.31;6058799;23;20018;-65
2022/03/25 02:18:12;;;;;;;3.00;2.90;;;;;;;3.82;71.00;102330.50;6086872;23;20074;-66
2022/03/25 02:20:39;;;;;;;6.63;6.20;;;;;;;4.00;71.93;102354.78;6083613;23;20018;-67
2022/03/25 02:23:06;;;;;;;4.05;3.83;;;;;;;3.90;72.03;102342.63;6084648;23;20091;-66
2022/03/25 02:25:33;;;;;;;5.00;4.80;;;;;;;3.98;71.42;102366.91;6085856;23;20018;-66
2022/03/25 02:28:01;;;;;;;4.70;4.07;;;;;;;3.96;71.47;102357.38;6084858;23;20016;-66
2022/03/25 02:30:29;;;;;;;4.55;4.30;;;;;;;3.94;71.15;102359.09;6086324;23;20032;-66
2022/03/25 02:33:01;;;;;;;11.65;4.60;;;;;;;3.91;71.27;102357.38;6085535;23;20096;-67
2022/03/25 02:35:39;;;;;;;3.97;3.78;;;;;;;3.87;71.38;102366.03;6076434;23;20026;-66
2022/03/25 02:38:10;;;;;;;3.50;3.40;;;;;;;3.82;71.99;102362.53;6090260;23;20093;-66
2022/03/25 02:40:36;;;;;;;5.15;4.95;;;;;;;3.64;72.07;102341.72;6090464;23;20549;-66
2022/03/25 02:43:03;;;;;;;3.50;3.40;;;;;;;3.70;71.67;102362.50;6083272;23;20098;-66
2022/03/25 02:45:30;;;;;;;4.53;4.32;;;;;;;3.64;72.13;102359.88;6085427;23;20088;-66
2022/03/25 02:47:57;;;;;;;4.05;3.75;;;;;;;3.54;72.85;102356.38;6080115;23;20057;-67
2022/03/25 02:50:25;;;;;;;3.75;3.53;;;;;;;3.55;73.73;102369.38;6070969;23;20070;-66
2022/03/25 02:52:52;;;;;;;4.38;4.07;;;;;;;3.41;73.73;102347.69;6085506;23;20522;-66
2022/03/25 02:55:19;;;;;;;3.97;3.78;;;;;;;3.45;73.63;102374.50;6068014;23;20102;-66
2022/03/25 02:57:45;;;;;;;3.30;3.20;;;;;;;3.40;74.70;102369.31;6092719;23;20053;-67
2022/03/25 03:00:12;;;;;;;4.13;3.92;;;;;;;3.05;74.76;102317.22;6093156;23;20022;-67
2022/03/25 03:02:38;;;;;;;3.60;3.35;;;;;;;3.33;75.19;102370.16;6088427;23;20026;-67
2022/03/25 03:05:09;;;;;;;4.55;4.18;;;;;;;3.30;75.06;102372.72;6092630;23;20547;-67
2022/03/25 03:07:36;;;;;;;3.63;3.42;;;;;;;3.28;74.98;102408.16;6083971;23;20477;-67
2022/03/25 03:10:04;;;;;;;4.10;3.88;;;;;;;3.24;75.06;102370.97;6068913;23;20029;-67
2022/03/25 03:12:32;;;;;;;4.25;4.05;;;;;;;3.22;75.79;102380.47;6095088;23;20018;-67
2022/03/25 03:15:03;;;;;;;3.55;3.42;;;;;;;2.73;76.02;102299.78;6057629;23;20018;-66
2022/03/25 03:17:29;;;;;;;4.00;3.85;;;;;;;2.93;75.58;102333.63;6083163;23;20037;-67
2022/03/25 03:19:56;;;;;;;6.25;4.63;;;;;;;2.14;75.45;102200.94;6059906;23;20537;-67
2022/03/25 03:22:22;;;;;;;4.03;3.78;;;;;;;3.10;75.14;102370.03;6104955;23;20055;-66
2022/03/25 03:24:49;;;;;;;3.42;3.22;;;;;;;2.72;75.06;102311.88;6063663;23;20094;-67
2022/03/25 03:27:16;;;;;;;4.53;4.22;;;;;;;3.10;75.28;102388.19;6082473;23;20026;-66
2022/03/25 03:29:42;;;;;;;5.10;4.90;;;;;;;3.00;75.36;102369.94;6085976;23;20022;-66
2022/03/25 03:32:09;;;;;;;4.60;4.28;;;;;;;2.99;75.25;102369.97;6084224;23;20087;-67
2022/03/25 03:34:36;;;;;;;6.47;6.18;;;;;;;2.87;75.82;102375.06;6082357;23;20017;-67
2022/03/25 03:37:03;;;;;;;3.45;3.35;;;;;;;1.65;75.96;102159.16;6086074;23;20042;-67
2022/03/25 03:39:30;;;;;;;4.82;4.63;;;;;;;2.95;75.55;102387.22;6061288;23;20093;-67
2022/03/25 03:41:56;;;;;;;3.70;3.50;;;;;;;2.91;75.58;102393.25;6089119;23;20052;-67
2022/03/25 03:44:23;;;;;;;5.18;4.82;;;;;;;2.88;75.73;102382.84;6053969;23;20003;-67
2022/03/25 03:46:49;;;;;;;4.07;3.88;;;;;;;2.85;75.76;102379.38;6082739;23;20956;-67
2022/03/25 03:49:16;;;;;;;3.20;3.10;;;;;;;2.85;75.59;102389.75;6088046;23;20069;-66
2022/03/25 03:51:42;;;;;;;5.28;4.97;;;;;;;2.61;75.59;102352.41;6078748;23;20032;-67
2022/03/25 03:54:08;;;;;;;4.07;3.85;;;;;;;2.78;76.47;102388.81;6084994;23;20010;-66
2022/03/25 03:56:35;;;;;;;10.25;5.10;;;;;;;2.44;76.15;102338.47;6081433;23;20033;-67
2022/03/25 03:59:02;;;;;;;3.72;3.53;;;;;;;1.65;76.03;102208.31;6081667;23;20009;-66
2022/03/25 04:01:28;;;;;;;4.90;4.55;;;;;;;1.48;75.72;102199.53;6080610;23;20030;-67
2022/03/25 04:03:55;;;;;;;4.00;3.80;;;;;;;2.61;76.57;102383.53;6083282;23;20499;-67
2022/03/25 04:06:22;;;;;;;3.70;3.40;;;;;;;2.22;77.43;102319.28;6091677;23;20026;-66
2022/03/25 04:08:49;;;;;;;3.30;3.20;;;;;;;1.28;77.67;102176.03;6068419;23;20454;-66
2022/03/25 04:11:15;;;;;;;3.88;3.67;;;;;;;2.39;77.52;102361.75;6084203;23;20668;-67
2022/03/25 04:13:44;;;;;;;5.15;4.85;;;;;;;2.29;77.60;102350.44;6084320;23;20700;-67
2022/03/25 04:16:11;;;;;;;3.15;3.05;;;;;;;1.38;77.70;102204.63;6103194;23;20033;-67
2022/03/25 04:18:38;;;;;;;5.45;5.25;;;;;;;2.30;77.74;102362.50;6083109;23;20020;-67
2022/03/25 04:21:05;;;;;;;4.07;3.88;;;;;;;2.46;77.50;102391.16;6086875;23;20498;-67
2022/03/25 04:23:31;;;;;;;4.55;4.35;;;;;;;1.52;78.02;102234.91;6075987;23;20017;-67
2022/03/25 04:25:58;;;;;;;3.80;3.60;;;;;;;2.19;78.81;102358.97;6084162;23;20399;-67
2022/03/25 04:28:25;;;;;;;3.95;3.75;;;;;;;2.37;79.00;102397.13;6075772;23;20081;-67
2022/03/25 04:30:51;;;;;;;3.78;3.60;;;;;;;2.16;79.05;102361.53;6080103;23;20093;-67
2022/03/25 04:33:18;;;;;;;3.30;3.20;;;;;;;2.30;79.37;102403.09;6069209;23;20030;-67
2022/03/25 04:35:44;;;;;;;5.82;5.53;;;;;;;2.28;79.31;102397.03;6079701;23;20014;-67
2022/03/25 04:38:11;;;;;;;4.75;4.45;;;;;;;2.24;79.96;102403.03;6088089;23;20387;-67
2022/03/25 04:40:37;;;;;;;4.75;4.55;;;;;;;1.00;80.19;102201.59;6083665;23;20036;-66
2022/03/25 04:43:04;;;;;;;3.17;3.08;;;;;;;2.25;79.62;102403.06;6083303;23;20022;-67
2022/03/25 04:45:31;;;;;;;4.70;4.47;;;;;;;0.65;79.40;102171.03;6075912;23;20034;-67
2022/03/25 04:47:59;;;;;;;3.70;3.50;;;;;;;2.11;80.16;102384.78;6073402;23;20077;-66
2022/03/25 04:50:27;;;;;;;4.25;3.95;;;;;;;1.95;80.73;102372.56;6086931;23;20032;-67
2022/03/25 04:52:54;;;;;;;3.47;3.38;;;;;;;2.04;80.24;102380.41;6081800;23;20031;-66
2022/03/25 04:55:21;;;;;;;3.38;3.00;;;;;;;0.90;80.65;102205.81;6086489;23;20017;-66
2022/03/25 04:57:48;;;;;;;4.70;4.50;;;;;;;2.05;82.15;102400.28;6085078;23;20197;-66
2022/03/25 05:00:15;;;;;;;3.25;3.15;;;;;;;2.11;83.52;102409.84;6082633;23;20635;-66
2022/03/25 05:02:42;;;;;;;4.65;4.45;;;;;;;2.07;82.81;102393.38;6084098;23;20022;-66
2022/03/25 05:05:09;;;;;;;5.90;4.22;;;;;;;1.87;82.37;102366.44;6104080;23;20022;-66
2022/03/25 05:07:39;;;;;;;6.43;6.03;;;;;;;2.12;82.00;102404.66;6080493;23;20020;-66
2022/03/25 05:10:06;;;;;;;3.78;3.58;;;;;;;2.10;82.26;102402.91;6087985;23;20069;-66
2022/03/25 05:12:32;;;;;;;4.82;4.63;;;;;;;0.86;81.91;102198.00;6080300;23;20014;-66
2022/03/25 05:14:59;;;;;;;3.10;3.00;;;;;;;1.98;81.72;102404.53;6107737;23;21340;-66
2022/03/25 05:17:26;;;;;;;4.18;3.58;;;;;;;2.05;81.56;102402.88;6088525;23;20042;-66
2022/03/25 05:19:54;;;;;;;3.15;3.05;;;;;;;2.05;81.49;102402.88;6083033;23;20024;-67
2022/03/25 05:22:20;;;;;;;3.38;3.28;;;;;;;2.06;81.90;102402.00;6052442;23;20014;-66
2022/03/25 05:24:47;;;;;;;4.90;4.70;;;;;;;2.08;82.51;102408.06;6079760;23;20486;-66
2022/03/25 05:27:13;;;;;;;3.17;3.08;;;;;;;1.97;81.84;102400.19;6085298;23;20197;-66
2022/03/25 05:29:40;;;;;;;5.60;5.30;;;;;;;2.02;82.88;102417.50;6076892;23;20069;-66
2022/03/25 05:32:07;;;;;;;4.03;3.83;;;;;;;1.97;83.06;102407.09;6069048;23;20049;-66
2022/03/25 05:34:33;;;;;;;4.78;4.55;;;;;;;1.64;83.31;102355.81;6101391;23;20057;-68
2022/03/25 05:37:00;;;;;;;3.50;3.30;;;;;;;1.72;83.51;102374.88;6081527;23;20042;-68
2022/03/25 05:39:26;;;;;;;4.30;4.03;;;;;;;1.99;83.40;102403.66;6091142;23;20037;-68
2022/03/25 05:41:53;;;;;;;8.98;3.97;;;;;;;2.09;82.91;102415.00;6086780;23;20094;-69
2022/03/25 05:44:19;;;;;;;3.75;3.55;;;;;;;2.15;83.17;102419.38;6095840;23;20069;-69
2022/03/25 05:46:46;;;;;;;3.85;3.70;;;;;;;2.15;82.73;102422.81;6076249;23;20029;-68
2022/03/25 05:49:12;;;;;;;4.50;4.25;;;;;;;2.15;82.20;102425.41;6082287;23;20077;-68
2022/03/25 05:51:39;;;;;;;5.38;5.13;;;;;;;2.00;81.97;102399.34;6061164;23;20050;-68
2022/03/25 05:54:05;;;;;;;4.55;4.25;;;;;;;2.21;82.08;102431.53;6084917;23;20673;-68
2022/03/25 05:56:32;;;;;;;6.65;6.35;;;;;;;0.76;82.00;102179.81;6108250;23;20586;-68
2022/03/25 05:58:58;;;;;;;3.42;3.33;;;;;;;2.33;82.80;102442.00;6112251;23;20030;-67
2022/03/25 06:01:25;;;;;;;3.47;3.35;;;;;;;2.22;82.27;102408.19;6087135;23;20029;-67
2022/03/25 06:03:51;;;;;;;4.10;3.90;;;;;;;2.47;81.81;102439.56;6100828;23;20041;-67
2022/03/25 06:06:18;;;;;;;7.20;4.50;;;;;;;1.14;81.37;102206.94;6086462;23;20101;-67
2022/03/25 06:08:49;;;;;;;4.68;4.43;;;;;;;2.34;82.29;102420.41;6079823;23;21048;-68
2022/03/25 06:11:16;;;;;;;5.30;4.90;;;;;;;2.51;81.78;102451.69;6091930;23;20102;-68
2022/03/25 06:13:42;;;;;;;5.78;5.30;;;;;;;2.55;81.66;102458.63;6079251;23;20014;-67
2022/03/25 06:16:09;;;;;;;3.25;3.15;;;;;;;2.57;81.10;102449.16;6089484;23;20632;-67
2022/03/25 06:18:35;;;;;;;4.85;4.65;;;;;;;2.64;81.07;102452.66;6085624;23;20028;-68
2022/03/25 06:21:03;;;;;;;3.47;3.35;;;;;;;2.65;81.37;102444.91;6082404;23;20030;-67
2022/03/25 06:23:30;;;;;;;4.38;4.20;;;;;;;1.43;80.56;102220.19;6084499;23;20365;-67
2022/03/25 06:25:56;;;;;;;3.65;3.55;;;;;;;2.76;80.43;102427.69;6082647;23;20017;-68
2022/03/25 06:28:23;;;;;;;3.58;3.38;;;;;;;1.72;80.37;102232.53;6087731;23;20100;-68
2022/03/25 06:30:49;;;;;;;3.92;3.72;;;;;;;3.10;81.15;102459.06;6076588;23;20158;-67
2022/03/25 06:33:16;;;;;;;6.72;4.65;;;;;;;1.88;80.91;102226.63;6088123;23;20460;-69
2022/03/25 06:35:44;;;;;;;5.45;5.13;;;;;;;2.18;80.96;102267.44;6082621;23;20181;-68
2022/03/25 06:38:11;;;;;;;3.85;3.55;;;;;;;3.52;80.22;102449.81;6080170;23;20045;-67
2022/03/25 06:40:37;;;;;;;4.55;4.35;;;;;;;3.68;79.83;102453.38;6088093;23;20032;-68
2022/03/25 06:43:04;;;;;;;4.35;4.05;;;;;;;2.59;79.47;102269.47;6081337;23;20032;-67
2022/03/25 06:45:33;;;;;;;4.63;4.43;;;;;;;3.90;79.26;102462.13;6082453;23;20033;-66
2022/03/25 06:47:59;;;;;;;4.75;4.55;;;;;;;4.10;79.03;102456.13;6082599;23;20026;-67
2022/03/25 06:50:26;;;;;;;3.50;3.40;;;;;;;3.65;78.29;102365.09;6075990;23;20086;-66
2022/03/25 06:52:53;;;;;;;3.67;3.58;;;;;;;4.19;78.18;102427.59;6085296;23;20028;-66
2022/03/25 06:55:23;;;;;;;5.38;4.97;;;;;;;4.33;78.46;102446.66;6082011;23;20506;-68
2022/03/25 06:57:50;;;;;;;3.72;3.63;;;;;;;4.68;78.51;102460.56;6079785;23;20017;-68
2022/03/25 07:00:19;;;;;;;3.60;3.50;;;;;;;4.83;77.84;102462.31;6084760;23;20038;-68
2022/03/25 07:02:46;;;;;;;5.55;5.25;;;;;;;4.93;76.43;102459.72;6045809;23;20043;-68
2022/03/25 07:05:13;;;;;;;3.60;3.50;;;;;;;5.18;76.94;102460.53;6108580;23;20024;-66
2022/03/25 07:07:41;;;;;;;6.93;6.53;;;;;;;5.36;76.14;102477.00;6079437;23;20081;-68
2022/03/25 07:10:09;;;;;;;3.70;3.50;;;;;;;5.51;75.07;102465.69;6077945;23;20089;-68
2022/03/25 07:12:38;;;;;;;7.03;6.35;;;;;;;5.68;75.74;102469.13;6082863;23;20028;-68
2022/03/25 07:15:07;;;;;;;3.85;3.65;;;;;;;5.83;74.42;102478.59;6081476;23;20092;-67
2022/03/25 07:17:34;;;;;;;5.15;4.95;;;;;;;5.91;74.66;102450.81;6057587;23;20033;-68
2022/03/25 07:20:01;;;;;;;5.20;4.80;;;;;;;6.06;74.41;102462.06;6085292;23;20021;-67
2022/03/25 07:22:28;;;;;;;4.95;4.65;;;;;;;5.93;73.44;102469.00;6053492;23;20015;-66
2022/03/25 07:24:54;;;;;;;4.45;4.25;;;;;;;6.06;74.05;102478.56;6086272;23;20032;-66
2022/03/25 07:27:21;;;;;;;5.95;5.40;;;;;;;5.07;73.01;102303.56;6072892;23;20514;-67
2022/03/25 07:29:47;;;;;;;4.85;4.60;;;;;;;6.35;72.02;102480.13;6079632;23;20014;-66
2022/03/25 07:32:14;;;;;;;4.88;4.60;;;;;;;6.47;71.89;102479.19;6089529;23;20026;-67
2022/03/25 07:34:40;;;;;;;5.57;5.28;;;;;;;6.61;72.87;102479.09;6079173;23;20085;-67
2022/03/25 07:37:07;;;;;;;4.80;3.92;;;;;;;6.88;72.11;102472.81;6082812;23;20075;-67
2022/03/25 07:39:34;;;;;;;6.80;6.07;;;;;;;6.55;70.81;102399.13;6081923;23;20045;-67
2022/03/25 07:42:00;;;;;;;4.45;3.95;;;;;;;6.93;72.27;102484.06;6065150;23;20419;-67
2022/03/25 07:44:27;;;;;;;4.38;4.18;;;;;;;6.98;70.22;102474.47;6081779;23;20092;-67
2022/03/25 07:46:54;;;;;;;4.07;3.88;;;;;;;6.87;69.83;102469.31;6068882;23;20958;-68
2022/03/25 07:49:20;;;;;;;4.20;3.90;;;;;;;7.29;70.83;102492.47;6082763;23;20090;-68
2022/03/25 07:51:47;;;;;;;5.18;4.97;;;;;;;7.39;69.93;102497.56;6055342;23;20450;-67
2022/03/25 07:54:13;;;;;;;3.83;3.65;;;;;;;6.96;71.03;102464.03;6079223;23;20010;-69
2022/03/25 07:56:40;;;;;;;5.20;5.00;;;;;;;7.33;69.61;102494.16;6083486;23;20100;-69
2022/03/25 07:59:08;;;;;;;3.72;3.63;;;;;;;7.51;69.93;102500.94;6080267;23;20092;-69
2022/03/25 08:01:35;;;;;;;5.68;5.38;;;;;;;7.81;69.95;102501.50;6078971;23;20360;-68
2022/03/25 08:04:01;;;;;;;5.15;4.70;;;;;;;6.99;68.17;102330.88;6079259;23;20115;-68
2022/03/25 08:06:28;;;;;;;5.80;5.35;;;;;;;7.37;68.25;102362.66;6082337;23;20675;-69
2022/03/25 08:08:54;;;;;;;5.40;5.10;;;;;;;8.57;67.21;102503.13;6081744;23;20021;-69
2022/03/25 08:11:21;;;;;;;5.30;4.97;;;;;;;8.59;65.14;102503.97;6085926;23;20030;-68
2022/03/25 08:13:47;;;;;;;5.28;4.97;;;;;;;7.82;64.33;102349.00;6076913;23;20081;-68
2022/03/25 08:16:16;;;;;;;6.13;5.70;;;;;;;8.85;63.01;102514.94;6082357;23;20035;-69
2022/03/25 08:18:43;;;;;;;6.30;6.00;;;;;;;8.10;62.87;102331.19;6077093;23;20021;-67
2022/03/25 08:21:11;;;;;;;4.90;4.68;;;;;;;9.27;64.26;102515.13;6075489;23;20072;-69
2022/03/25 08:29:09;;;;;;;5.75;5.38;;;;;;;9.05;61.42;102470.09;6077785;23;20022;-66
2022/03/25 08:31:46;;;;;;;6.55;6.07;;;;;;;9.10;60.56;102455.16;6071671;23;20014;-66
2022/03/25 08:34:15;;;;;;;4.93;4.65;;;;;;;9.69;60.45;102533.56;6077361;23;20391;-66
2022/03/25 08:36:43;;;;;;;7.93;7.38;;;;;;;9.90;60.79;102520.06;6066358;23;20050;-69
2022/03/25 08:39:10;;;;;;;5.30;4.97;;;;;;;9.95;59.68;102520.81;6075871;23;20032;-69
2022/03/25 08:41:37;;;;;;;7.93;7.38;;;;;;;8.97;59.91;102324.44;6048372;23;20057;-69
2022/03/25 08:44:04;;;;;;;5.03;4.63;;;;;;;10.34;60.48;102522.66;6057565;23;20267;-67
2022/03/25 08:46:32;;;;;;;7.63;7.03;;;;;;;9.63;58.91;102373.78;6030008;23;20221;-68
2022/03/25 08:48:58;;;;;;;6.45;5.88;;;;;;;10.48;58.02;102523.19;6032461;23;20472;-68
2022/03/25 08:51:25;;;;;;;5.70;5.40;;;;;;;10.34;58.26;102502.53;6051993;23;20026;-67
2022/03/25 08:53:53;;;;;;;5.00;4.75;;;;;;;10.51;58.48;102481.13;6041268;23;20037;-65
2022/03/25 08:56:24;;;;;;;7.43;6.05;;;;;;;10.96;57.84;102524.72;6062552;23;20036;-68
2022/03/25 08:58:54;;;;;;;6.03;5.63;;;;;;;10.98;56.73;102528.16;6033901;23;20558;-66
2022/03/25 09:01:21;;;;;;;4.90;4.70;;;;;;;11.06;56.54;102541.13;6054906;23;20010;-68
2022/03/25 09:03:48;;;;;;;4.93;4.63;;;;;;;10.29;56.25;102357.41;6057351;23;20041;-69
2022/03/25 09:06:15;;;;;;;5.18;4.88;;;;;;;11.45;55.77;102522.63;6053665;23;20034;-68
2022/03/25 09:08:41;;;;;;;8.02;7.55;;;;;;;11.52;55.96;102525.03;6039477;23;20036;-68
2022/03/25 09:11:09;;;;;;;5.68;5.35;;;;;;;10.62;55.08;102362.72;6059314;23;21529;-66
2022/03/25 09:13:36;;;;;;;7.78;7.32;;;;;;;11.76;55.50;102520.00;6049466;23;20587;-67
2022/03/25 09:16:03;;;;;;;6.97;6.38;;;;;;;11.56;55.39;102508.25;6051881;23;20026;-65
2022/03/25 09:18:29;;;;;;;6.10;5.80;;;;;;;11.97;55.82;102522.06;6042691;23;20014;-67
2022/03/25 09:20:56;;;;;;;6.18;5.72;;;;;;;11.14;54.32;102352.59;6056471;23;20028;-65
2022/03/25 09:23:22;;;;;;;6.35;5.75;;;;;;;12.44;54.28;102525.97;6034860;23;20036;-67
2022/03/25 09:25:49;;;;;;;6.15;5.85;;;;;;;12.08;50.86;102473.53;6069683;23;20030;-67
2022/03/25 09:28:15;;;;;;;5.82;5.45;;;;;;;11.35;51.00;102341.47;6079616;23;20018;-67
2022/03/25 09:30:43;;;;;;;8.00;7.57;;;;;;;12.47;50.20;102524.09;6061334;23;20034;-67
2022/03/25 09:33:09;;;;;;;6.10;5.70;;;;;;;12.64;49.76;102494.59;6069680;23;20018;-66
2022/03/25 09:35:38;;;;;;;7.35;6.95;;;;;;;12.93;49.24;102527.91;6062633;23;20030;-67
2022/03/25 09:38:07;;;;;;;6.80;6.15;;;;;;;13.05;48.21;102524.00;6062600;23;20042;-67
2022/03/25 09:40:34;;;;;;;8.35;7.75;;;;;;;13.25;47.17;102514.53;6076023;23;20038;-67
2022/03/25 09:43:01;;;;;;;5.85;5.18;;;;;;;12.22;47.57;102339.72;6083345;23;20025;-66
2022/03/25 09:45:30;;;;;;;6.28;5.88;;;;;;;13.49;47.13;102521.66;6082463;23;20017;-67
2022/03/25 09:47:57;;;;;;;11.75;5.70;;;;;;;12.77;46.64;102372.09;6086785;23;20045;-66
2022/03/25 09:50:25;;;;;;;6.25;5.93;;;;;;;12.70;45.33;102328.44;6084341;23;20100;-66
2022/03/25 09:52:53;;;;;;;5.13;4.90;;;;;;;13.00;44.95;102340.59;6068957;23;20049;-67
2022/03/25 09:55:44;;;;;;;6.85;6.25;;;;;;;14.30;44.22;102520.41;6085147;23;20052;-66
2022/03/25 09:58:12;;;;;;;6.10;5.70;;;;;;;14.25;43.09;102481.91;6090515;23;20095;-67
2022/03/25 10:00:39;;;;;;;7.00;6.50;;;;;;;13.29;43.57;102379.97;6082967;23;20078;-67
2022/03/25 10:03:07;;;;;;;7.78;7.22;;;;;;;14.28;43.03;102518.75;6086161;23;20087;-67
2022/03/25 10:05:57;;;;;;;8.88;8.10;;;;;;;14.53;43.40;102516.00;6085170;23;20026;-67
2022/03/25 10:08:38;;;;;;;8.15;7.55;;;;;;;14.71;42.04;102517.09;6069018;23;20562;-67
2022/03/25 10:11:21;;;;;;;6.32;5.93;;;;;;;14.81;42.47;102489.34;6086990;23;20638;-67
2022/03/25 10:13:50;;;;;;;6.80;5.97;;;;;;;14.99;40.46;102513.31;6076269;23;20025;-68
2022/03/25 10:16:27;;;;;;;5.90;5.53;;;;;;;15.12;41.28;102507.44;6091394;23;20625;-68
2022/03/25 10:18:54;;;;;;;7.63;6.50;;;;;;;13.65;40.85;102241.44;6065581;23;20094;-70
2022/03/25 10:21:21;;;;;;;7.05;6.40;;;;;;;15.50;40.07;102515.53;6094598;23;20530;-68
2022/03/25 10:23:47;;;;;;;6.95;6.35;;;;;;;15.45;40.42;102475.16;6059933;23;20174;-67
2022/03/25 10:26:14;;;;;;;6.05;5.60;;;;;;;15.08;38.04;102394.78;6093034;23;20021;-68
2022/03/25 10:28:42;;;;;;;7.40;6.95;;;;;;;15.77;37.58;102512.59;6083598;23;20030;-67
2022/03/25 10:31:15;;;;;;;6.22;5.82;;;;;;;15.90;39.47;102502.31;6083015;23;20073;-70
2022/03/25 10:33:44;;;;;;;9.95;9.00;;;;;;;16.10;35.85;102507.56;6090627;23;20094;-68
2022/03/25 10:36:14;;;;;;;5.63;5.22;;;;;;;16.38;35.66;102502.72;6083159;23;20088;-69
2022/03/25 10:38:49;;;;;;;8.15;6.93;;;;;;;16.59;35.41;102500.84;6083542;23;20068;-65
2022/03/25 10:41:19;;;;;;;5.82;5.43;;;;;;;16.69;35.40;102518.88;6099228;23;20101;-65
2022/03/25 10:43:59;;;;;;;7.35;6.93;;;;;;;16.34;35.34;102502.03;6080111;23;20054;-67
2022/03/25 10:46:45;;;;;;;4.93;4.72;;;;;;;15.40;36.54;102350.19;6109622;23;20022;-65
2022/03/25 10:49:14;;;;;;;4.97;4.68;;;;;;;16.59;34.29;102509.66;6066502;23;20014;-65
2022/03/25 10:51:52;;;;;;;6.80;6.30;;;;;;;15.74;35.47;102364.50;6105841;23;20096;-66
2022/03/25 10:54:23;;;;;;;5.82;5.45;;;;;;;16.60;34.42;102507.84;6058203;23;20029;-67
2022/03/25 10:56:51;;;;;;;5.65;5.30;;;;;;;16.48;36.19;102504.88;6070654;23;20469;-66
2022/03/25 10:59:34;;;;;;;5.45;5.15;;;;;;;16.26;34.99;102510.34;6107821;23;20100;-67
2022/03/25 11:02:04;;;;;;;;;;;;;;;16.47;36.36;102507.59;6038954;23;20019;-66
2022/03/25 11:04:32;;;;;;;8.07;7.43;;;;;;;16.28;35.43;102502.34;6101039;23;19919;-66
2022/03/25 11:07:01;;;;;;;6.50;6.10;;;;;;;16.35;35.30;102490.50;6075624;23;20014;-66
2022/03/25 11:09:28;;;;;;;6.35;5.78;;;;;;;16.16;36.40;102503.75;6104503;23;20153;-65
2022/03/25 11:11:57;;;;;;;7.90;6.03;;;;;;;16.54;37.62;102493.13;6078178;23;20053;-64
2022/03/25 11:14:25;;;;;;;5.45;5.15;;;;;;;16.28;34.20;102378.66;6116352;23;20119;-63
2022/03/25 11:16:59;;;;;;;6.65;6.05;;;;;;;16.91;35.17;102496.63;6088068;23;20025;-65
2022/03/25 11:19:26;;;;;;;5.55;5.18;;;;;;;15.73;35.80;102376.88;6104058;23;20135;-65
2022/03/25 11:21:57;;;;;;;5.93;5.22;;;;;;;16.35;34.10;102487.84;6088641;23;20712;-64
2022/03/25 11:24:33;;;;;;;5.55;5.22;;;;;;;16.21;35.23;102516.78;6109806;23;20033;-65
2022/03/25 11:27:16;;;;;;;6.40;5.80;;;;;;;16.28;35.39;102491.72;6083067;23;20108;-66
2022/03/25 11:29:44;;;;;;;;;;;;;;;16.34;36.39;102486.13;6087726;23;20015;-65
2022/03/25 11:32:13;;;;;;;5.05;4.85;;;;;;;16.11;34.68;102466.03;6081382;23;19909;-66
2022/03/25 11:34:59;;;;;;;7.90;7.47;;;;;;;16.61;34.63;102488.38;6079438;23;20080;-66
2022/03/25 11:37:31;;;;;;;6.50;6.10;;;;;;;15.86;35.58;102353.34;6073546;23;20136;-66
2022/03/25 11:40:12;;;;;;;6.13;5.68;;;;;;;16.83;33.70;102480.25;6059314;23;20081;-65